createdAt,value
2023-01-19T00:00:55.761Z,2.92
2023-01-19T00:03:22.934Z,7.40
2023-01-19T00:05:49.993Z,3.85
2023-01-19T00:08:17.818Z,3.95
2023-01-19T00:10:48.349Z,4.05
2023-01-19T00:13:16.276Z,5.90
2023-01-19T00:15:44.247Z,6.50
2023-01-19T00:18:11.487Z,4.32
2023-01-19T00:20:39.813Z,8.07
2023-01-19T00:23:08.414Z,5.78
2023-01-19T00:25:36.073Z,7.60
2023-01-19T00:28:03.276Z,9.80
2023-01-19T00:30:30.540Z,7.28
2023-01-19T00:32:57.798Z,5.82
2023-01-19T00:35:25.364Z,7.50
2023-01-19T00:37:52.438Z,7.25
2023-01-19T00:40:19.544Z,4.85
2023-01-19T00:42:48.623Z,4.72
2023-01-19T00:45:23.429Z,4.30
2023-01-19T00:47:55.079Z,4.60
2023-01-19T00:50:22.374Z,4.35
2023-01-19T00:52:49.476Z,5.10
2023-01-19T00:55:17.117Z,5.93
2023-01-19T00:57:44.208Z,6.22
2023-01-19T01:00:14.462Z,6.95
2023-01-19T01:02:43.116Z,6.25
2023-01-19T01:05:12.494Z,5.70
2023-01-19T01:07:49.000Z,4.03
2023-01-19T01:10:26.273Z,6.00
2023-01-19T01:12:59.225Z,5.60
2023-01-19T01:15:29.721Z,6.43
2023-01-19T01:17:56.710Z,6.63
2023-01-19T01:20:28.375Z,11.95
2023-01-19T01:22:56.499Z,6.30
2023-01-19T01:25:25.191Z,6.32
2023-01-19T01:27:52.395Z,12.15
2023-01-19T01:30:20.031Z,10.70
2023-01-19T01:32:47.193Z,9.45
2023-01-19T01:35:14.988Z,8.63
2023-01-19T01:37:45.515Z,6.25
2023-01-19T01:40:14.526Z,6.65
2023-01-19T01:42:42.748Z,5.60
2023-01-19T01:45:28.558Z,5.65
2023-01-19T01:48:01.904Z,5.78
2023-01-19T01:50:31.804Z,8.35
2023-01-19T01:53:15.015Z,4.65
2023-01-19T01:55:47.045Z,6.72
2023-01-19T01:58:16.476Z,6.47
2023-01-19T02:01:02.338Z,3.80
2023-01-19T02:03:29.812Z,7.47
2023-01-19T02:06:01.966Z,8.20
2023-01-19T02:08:53.238Z,10.10
2023-01-19T02:11:39.327Z,12.60
2023-01-19T02:14:07.042Z,12.02
2023-01-19T02:16:36.594Z,10.00
2023-01-19T02:19:05.690Z,11.05
2023-01-19T02:21:43.293Z,6.55
2023-01-19T02:24:11.188Z,8.63
2023-01-19T02:26:47.496Z,7.70
2023-01-19T02:29:21.018Z,7.93
2023-01-19T02:31:48.116Z,7.65
2023-01-19T02:34:18.252Z,8.80
2023-01-19T02:36:52.986Z,9.73
2023-01-19T02:39:25.521Z,6.97
2023-01-19T02:41:57.338Z,7.68
2023-01-19T02:44:25.831Z,4.10
2023-01-19T02:46:55.173Z,9.35
2023-01-19T02:49:22.398Z,8.77
2023-01-19T02:51:49.910Z,8.73
2023-01-19T02:54:25.531Z,10.13
2023-01-19T02:57:11.463Z,5.85
2023-01-19T03:00:13.490Z,8.13
2023-01-19T03:02:55.425Z,8.70
2023-01-19T03:05:51.043Z,8.10
2023-01-19T03:08:29.907Z,7.38
2023-01-19T03:11:06.893Z,6.25
2023-01-19T03:13:44.802Z,4.55
2023-01-19T03:16:15.286Z,7.70
2023-01-19T03:18:46.574Z,10.00
2023-01-19T03:21:16.516Z,7.47
2023-01-19T03:23:46.896Z,6.15
2023-01-19T03:26:19.385Z,8.02
2023-01-19T03:28:48.772Z,5.60
2023-01-19T03:31:21.485Z,4.53
2023-01-19T03:33:53.911Z,10.32
2023-01-19T03:36:29.957Z,8.30
2023-01-19T03:38:58.765Z,8.70
2023-01-19T03:41:27.994Z,7.13
2023-01-19T03:43:56.013Z,6.40
2023-01-19T03:46:25.056Z,7.25
2023-01-19T03:48:52.440Z,10.93
2023-01-19T03:51:19.836Z,5.55
2023-01-19T03:53:47.461Z,6.97
2023-01-19T03:56:19.730Z,4.07
2023-01-19T03:58:47.122Z,4.80
2023-01-19T04:01:15.583Z,6.22
2023-01-19T04:03:47.580Z,7.97
2023-01-19T04:06:14.978Z,5.07
2023-01-19T04:08:42.087Z,6.60
2023-01-19T04:11:10.015Z,6.68
2023-01-19T04:13:37.391Z,9.43
2023-01-19T04:16:05.975Z,7.80
2023-01-19T04:18:34.873Z,11.60
2023-01-19T04:21:07.025Z,8.63
2023-01-19T04:23:34.853Z,9.02
2023-01-19T04:26:06.815Z,7.57
2023-01-19T04:28:35.983Z,11.50
2023-01-19T04:31:03.661Z,7.65
2023-01-19T04:33:31.005Z,11.23
2023-01-19T04:35:58.516Z,9.25
2023-01-19T04:38:26.556Z,8.25
2023-01-19T04:40:54.558Z,14.50
2023-01-19T04:43:22.912Z,16.42
2023-01-19T04:45:50.128Z,13.52
2023-01-19T04:48:18.730Z,12.43
2023-01-19T04:50:46.565Z,12.68
2023-01-19T04:53:14.204Z,15.25
2023-01-19T04:55:41.652Z,11.75
2023-01-19T04:58:08.866Z,7.15
2023-01-19T05:00:36.670Z,4.60
2023-01-19T05:03:05.385Z,8.43
2023-01-19T05:05:33.504Z,6.40
2023-01-19T05:08:00.901Z,9.93
2023-01-19T05:10:28.040Z,8.07
2023-01-19T05:12:55.688Z,6.57
2023-01-19T05:15:22.982Z,8.57
2023-01-19T05:17:50.085Z,9.15
2023-01-19T05:20:17.709Z,9.05
2023-01-19T05:22:53.918Z,8.43
2023-01-19T05:25:21.088Z,6.18
2023-01-19T05:27:48.447Z,3.83
2023-01-19T05:30:15.845Z,7.35
2023-01-19T05:32:43.170Z,5.75
2023-01-19T05:35:10.690Z,7.15
2023-01-19T05:37:37.804Z,5.20
2023-01-19T05:40:05.696Z,3.53
2023-01-19T05:42:33.034Z,7.00
2023-01-19T05:45:00.529Z,3.55
2023-01-19T05:47:30.025Z,4.85
2023-01-19T05:49:57.533Z,3.80
2023-01-19T05:52:25.266Z,4.32
2023-01-19T05:54:52.650Z,4.50
2023-01-19T05:57:19.931Z,4.72
2023-01-19T05:59:47.011Z,3.85
2023-01-19T06:02:14.152Z,3.58
2023-01-19T06:04:41.425Z,6.20
2023-01-19T06:07:08.495Z,3.13
2023-01-19T06:09:35.489Z,4.78
2023-01-19T06:12:02.547Z,5.80
2023-01-19T06:14:29.662Z,1.50
2023-01-19T06:16:56.683Z,1.35
2023-01-19T06:19:23.754Z,2.33
2023-01-19T06:21:52.632Z,3.58
2023-01-19T06:24:20.245Z,3.88
2023-01-19T06:26:47.575Z,3.20
2023-01-19T06:29:14.924Z,1.75
2023-01-19T06:31:42.218Z,3.13
2023-01-19T06:34:09.929Z,2.50
2023-01-19T06:36:37.198Z,5.57
2023-01-19T06:39:06.213Z,3.58
2023-01-19T06:41:34.350Z,3.55
2023-01-19T06:44:01.999Z,6.38
2023-01-19T06:46:29.887Z,3.00
2023-01-19T06:48:57.263Z,4.15
2023-01-19T06:51:24.533Z,4.50
2023-01-19T06:53:51.568Z,5.30
2023-01-19T06:56:18.763Z,6.60
2023-01-19T06:58:48.176Z,7.65
2023-01-19T07:01:15.396Z,3.08
2023-01-19T07:03:43.009Z,4.53
2023-01-19T07:06:12.968Z,4.75
2023-01-19T07:08:40.388Z,9.43
2023-01-19T07:11:27.147Z,6.93
2023-01-19T07:13:56.880Z,11.82
2023-01-19T07:16:24.239Z,11.65
2023-01-19T07:18:51.736Z,11.90
2023-01-19T07:21:19.804Z,14.95
2023-01-19T07:23:50.994Z,8.63
2023-01-19T07:26:22.095Z,7.97
2023-01-19T07:28:49.801Z,7.53
2023-01-19T07:31:17.161Z,6.13
2023-01-19T07:33:44.511Z,6.30
2023-01-19T07:36:12.001Z,6.20
2023-01-19T07:38:39.126Z,5.95
2023-01-19T07:41:09.543Z,9.68
2023-01-19T07:43:36.584Z,5.90
2023-01-19T07:46:06.119Z,5.78
2023-01-19T07:48:33.390Z,5.05
2023-01-19T07:51:02.000Z,7.95
2023-01-19T07:53:38.844Z,6.63
2023-01-19T07:56:07.989Z,9.07
2023-01-19T07:58:35.069Z,7.38
2023-01-19T08:01:07.387Z,7.70
2023-01-19T08:03:34.851Z,3.88
2023-01-19T08:06:02.828Z,5.07
2023-01-19T08:08:30.437Z,5.82
2023-01-19T08:10:57.967Z,2.70
2023-01-19T08:13:25.765Z,5.72
2023-01-19T08:15:54.397Z,4.72
2023-01-19T08:18:21.937Z,5.13
2023-01-19T08:20:49.135Z,3.70
2023-01-19T08:23:18.368Z,4.63
2023-01-19T08:25:46.363Z,4.72
2023-01-19T08:28:15.721Z,4.95
2023-01-19T08:30:46.379Z,2.72
2023-01-19T08:33:14.015Z,3.53
2023-01-19T08:35:42.909Z,2.45
2023-01-19T08:38:10.944Z,3.78
2023-01-19T08:40:40.209Z,2.22
2023-01-19T08:43:10.064Z,2.85
2023-01-19T08:45:41.717Z,3.88
2023-01-19T08:48:10.161Z,11.27
2023-01-19T08:50:37.236Z,10.10
2023-01-19T08:53:07.563Z,3.00
2023-01-19T08:55:36.405Z,7.75
2023-01-19T08:58:05.305Z,5.68
2023-01-19T09:00:40.107Z,4.38
2023-01-19T09:03:09.075Z,3.33
2023-01-19T09:05:39.106Z,5.85
2023-01-19T09:08:11.669Z,4.05
2023-01-19T09:10:39.890Z,4.00
2023-01-19T09:13:11.145Z,3.28
2023-01-19T09:15:39.511Z,2.97
2023-01-19T09:18:10.454Z,3.38
2023-01-19T09:20:39.337Z,3.30
2023-01-19T09:23:06.657Z,2.42
2023-01-19T09:25:33.787Z,2.55
2023-01-19T09:28:01.136Z,3.95
2023-01-19T09:30:28.621Z,4.78
2023-01-19T09:32:55.651Z,4.20
2023-01-19T09:35:22.751Z,2.63
2023-01-19T09:37:49.880Z,3.50
2023-01-19T09:40:19.116Z,3.65
2023-01-19T09:42:52.758Z,3.63
2023-01-19T09:45:39.043Z,4.10
2023-01-19T09:48:21.161Z,5.55
2023-01-19T09:50:49.794Z,5.55
2023-01-19T09:53:26.692Z,3.95
2023-01-19T09:55:53.759Z,3.30
2023-01-19T09:58:21.297Z,4.22
2023-01-19T10:00:57.460Z,3.25
2023-01-19T10:03:24.535Z,2.90
2023-01-19T10:05:57.628Z,4.68
2023-01-19T10:08:43.298Z,3.53
2023-01-19T10:11:51.698Z,5.45
2023-01-19T10:14:34.649Z,3.78
2023-01-19T10:17:19.328Z,4.00
2023-01-19T10:19:51.676Z,5.55
2023-01-19T10:22:25.542Z,6.40
2023-01-19T10:27:32.054Z,5.80
2023-01-19T10:30:00.858Z,6.40
2023-01-19T10:32:34.604Z,6.22
2023-01-19T10:35:12.763Z,4.78
2023-01-19T10:37:45.061Z,10.50
2023-01-19T10:40:12.120Z,5.35
2023-01-19T10:42:41.259Z,6.85
2023-01-19T10:45:19.757Z,6.50
2023-01-19T10:47:48.263Z,9.02
2023-01-19T10:50:37.496Z,5.95
2023-01-19T10:53:06.388Z,7.85
2023-01-19T10:55:38.457Z,4.57
2023-01-19T10:58:07.412Z,4.60
2023-01-19T11:00:44.032Z,2.97
2023-01-19T11:03:28.670Z,3.63
2023-01-19T11:06:15.927Z,5.45
2023-01-19T11:08:44.635Z,4.47
2023-01-19T11:11:15.021Z,4.82
2023-01-19T11:13:44.139Z,8.18
2023-01-19T11:16:25.749Z,12.32
2023-01-19T11:18:54.877Z,8.07
2023-01-19T11:21:26.075Z,6.78
2023-01-19T11:24:02.867Z,14.05
2023-01-19T11:26:49.919Z,3.58
2023-01-19T11:29:23.533Z,5.18
2023-01-19T11:31:51.933Z,6.18
2023-01-19T11:34:39.146Z,3.08
2023-01-19T11:37:27.450Z,7.88
2023-01-19T11:39:58.009Z,3.67
2023-01-19T11:42:26.925Z,4.50
2023-01-19T11:45:16.304Z,9.50
2023-01-19T11:47:52.141Z,7.40
2023-01-19T11:50:41.236Z,3.97
2023-01-19T11:53:17.342Z,4.35
2023-01-19T11:55:48.953Z,6.20
2023-01-19T11:58:20.069Z,3.83
2023-01-19T12:00:53.616Z,5.80
2023-01-19T12:03:32.012Z,7.88
2023-01-19T12:06:04.562Z,9.52
2023-01-19T12:08:37.120Z,7.80
2023-01-19T12:11:06.290Z,11.40
2023-01-19T12:13:34.694Z,11.85
2023-01-19T12:16:08.007Z,8.93
2023-01-19T12:18:44.070Z,9.13
2023-01-19T12:21:11.209Z,7.25
2023-01-19T12:23:59.868Z,8.35
2023-01-19T12:26:33.588Z,10.13
2023-01-19T12:29:14.149Z,15.45
2023-01-19T12:31:43.389Z,16.90
2023-01-19T12:34:26.132Z,12.07
2023-01-19T12:36:56.071Z,12.18
2023-01-19T12:39:25.473Z,17.40
2023-01-19T12:42:15.573Z,12.40
2023-01-19T12:44:43.920Z,11.05
2023-01-19T12:47:10.981Z,10.77
2023-01-19T12:49:47.221Z,11.32
2023-01-19T12:52:21.830Z,6.00
2023-01-19T12:54:57.992Z,7.15
2023-01-19T12:57:33.899Z,7.72
2023-01-19T13:00:05.990Z,8.43
2023-01-19T13:02:47.920Z,4.97
2023-01-19T13:05:19.815Z,6.70
2023-01-19T13:08:07.185Z,8.30
2023-01-19T13:11:11.162Z,5.90
2023-01-19T13:13:38.228Z,4.85
2023-01-19T13:16:28.086Z,6.90
2023-01-19T13:18:56.504Z,11.18
2023-01-19T13:21:26.509Z,7.57
2023-01-19T13:23:56.973Z,8.15
2023-01-19T13:26:27.624Z,7.70
2023-01-19T13:28:58.270Z,11.45
2023-01-19T13:31:26.175Z,13.75
2023-01-19T13:33:55.885Z,13.80
2023-01-19T13:36:33.764Z,11.30
2023-01-19T13:39:06.292Z,15.60
2023-01-19T13:41:37.878Z,15.90
2023-01-19T13:44:28.123Z,15.75
2023-01-19T13:46:56.863Z,23.13
2023-01-19T13:49:30.805Z,19.85
2023-01-19T13:52:27.020Z,20.77
2023-01-19T13:55:01.777Z,14.30
2023-01-19T13:57:41.208Z,14.90
2023-01-19T14:00:16.757Z,14.75
2023-01-19T14:02:59.525Z,15.10
2023-01-19T14:05:34.407Z,12.70
2023-01-19T14:08:13.610Z,13.88
2023-01-19T14:10:48.121Z,12.85
2023-01-19T14:13:22.669Z,12.82
2023-01-19T14:15:52.020Z,17.75
2023-01-19T14:18:19.088Z,19.55
2023-01-19T14:21:08.225Z,22.13
2023-01-19T14:24:08.802Z,7.75
2023-01-19T14:26:54.128Z,7.35
2023-01-19T14:29:28.964Z,6.25
2023-01-19T14:32:01.876Z,7.55
2023-01-19T14:34:47.264Z,7.63
2023-01-19T14:37:32.007Z,4.93
2023-01-19T14:40:11.201Z,6.13
2023-01-19T14:43:09.239Z,10.23
2023-01-19T14:45:43.411Z,5.20
2023-01-19T14:48:19.850Z,8.63
2023-01-19T14:51:02.488Z,6.32
2023-01-19T14:53:37.235Z,6.55
2023-01-19T14:56:06.494Z,4.35
2023-01-19T14:58:35.605Z,6.15
2023-01-19T15:01:03.814Z,8.95
2023-01-19T15:03:44.012Z,10.30
2023-01-19T15:06:20.806Z,11.07
2023-01-19T15:08:50.914Z,7.07
2023-01-19T15:11:34.921Z,9.57
2023-01-19T15:14:03.297Z,11.32
2023-01-19T15:16:33.126Z,13.15
2023-01-19T15:19:00.568Z,16.05
2023-01-19T15:21:27.800Z,19.08
2023-01-19T15:23:58.006Z,19.67
2023-01-19T15:26:26.577Z,14.82
2023-01-19T15:28:54.185Z,18.17
2023-01-19T15:31:23.913Z,20.48
2023-01-19T15:33:51.045Z,12.48
2023-01-19T15:36:20.374Z,10.77
2023-01-19T15:38:47.931Z,18.55
2023-01-19T15:41:18.450Z,13.70
2023-01-19T15:43:45.935Z,14.85
2023-01-19T15:46:15.867Z,16.70
2023-01-19T15:48:43.084Z,12.20
2023-01-19T15:51:19.174Z,13.98
2023-01-19T15:53:46.669Z,11.90
2023-01-19T15:56:24.936Z,12.68
2023-01-19T15:58:53.145Z,11.77
2023-01-19T16:01:22.930Z,9.35
2023-01-19T16:03:51.187Z,8.52
2023-01-19T16:06:18.510Z,11.43
2023-01-19T16:08:45.857Z,6.07
2023-01-19T16:11:15.898Z,9.52
2023-01-19T16:13:46.701Z,4.90
2023-01-19T16:16:19.316Z,7.97
2023-01-19T16:18:46.750Z,13.00
2023-01-19T16:21:14.026Z,8.77
2023-01-19T16:23:41.144Z,5.95
2023-01-19T16:26:23.922Z,5.53
2023-01-19T16:28:50.964Z,2.92
2023-01-19T16:31:18.050Z,3.85
2023-01-19T16:33:45.821Z,4.53
2023-01-19T16:36:29.111Z,4.65
2023-01-19T16:38:59.783Z,3.60
2023-01-19T16:41:27.120Z,4.20
2023-01-19T16:43:55.823Z,4.68
2023-01-19T16:46:28.225Z,5.40
2023-01-19T16:49:00.446Z,3.85
2023-01-19T16:51:28.093Z,7.90
2023-01-19T16:53:55.251Z,9.90
2023-01-19T16:56:22.454Z,10.43
2023-01-19T16:58:53.703Z,8.27
2023-01-19T17:01:21.473Z,14.23
2023-01-19T17:03:49.115Z,9.25
2023-01-19T17:06:18.997Z,7.45
2023-01-19T17:08:47.267Z,15.00
2023-01-19T17:11:20.891Z,17.80
2023-01-19T17:14:10.553Z,12.00
2023-01-19T17:16:37.812Z,9.10
2023-01-19T17:19:06.583Z,7.38
2023-01-19T17:21:34.356Z,14.23
2023-01-19T17:24:02.100Z,12.90
2023-01-19T17:26:31.169Z,11.48
2023-01-19T17:29:03.788Z,15.70
2023-01-19T17:31:32.442Z,17.65
2023-01-19T17:34:00.425Z,15.70
2023-01-19T17:36:30.042Z,13.43
2023-01-19T17:38:58.895Z,14.85
2023-01-19T17:41:31.212Z,11.38
2023-01-19T17:43:59.744Z,14.73
2023-01-19T17:46:28.376Z,13.60
2023-01-19T17:49:00.444Z,14.23
2023-01-19T17:51:28.279Z,7.80
2023-01-19T17:53:56.010Z,17.98
2023-01-19T17:56:30.103Z,8.77
2023-01-19T17:58:58.952Z,13.15
2023-01-19T18:01:31.389Z,5.72
2023-01-19T18:03:58.953Z,7.13
2023-01-19T18:06:26.054Z,7.55
2023-01-19T18:08:53.277Z,8.57
2023-01-19T18:11:21.480Z,5.30
2023-01-19T18:13:50.066Z,6.00
2023-01-19T18:16:28.232Z,3.97
2023-01-19T18:18:56.685Z,7.10
2023-01-19T18:21:25.324Z,6.47
2023-01-19T18:23:52.525Z,8.25
2023-01-19T18:26:21.765Z,6.43
2023-01-19T18:28:49.486Z,7.10
2023-01-19T18:31:18.656Z,5.82
2023-01-19T18:33:45.917Z,4.18
2023-01-19T18:36:13.476Z,6.88
2023-01-19T18:38:40.819Z,8.10
2023-01-19T18:41:11.297Z,8.80
2023-01-19T18:43:38.958Z,6.93
2023-01-19T18:46:06.741Z,10.63
2023-01-19T18:48:34.284Z,6.55
2023-01-19T18:51:06.239Z,8.30
2023-01-19T18:53:33.402Z,9.15
2023-01-19T18:56:02.332Z,13.00
2023-01-19T18:58:30.316Z,12.13
2023-01-19T19:00:58.445Z,9.38
2023-01-19T19:03:25.747Z,11.43
2023-01-19T19:05:52.786Z,16.38
2023-01-19T19:08:19.898Z,8.98
2023-01-19T19:10:46.985Z,12.02
2023-01-19T19:13:16.508Z,11.48
2023-01-19T19:15:44.710Z,11.13
2023-01-19T19:18:16.564Z,9.30
2023-01-19T19:20:43.815Z,9.40
2023-01-19T19:23:12.071Z,6.45
2023-01-19T19:25:39.325Z,7.32
2023-01-19T19:28:06.812Z,7.22
2023-01-19T19:30:35.997Z,6.50
2023-01-19T19:33:03.068Z,8.02
2023-01-19T19:35:30.134Z,7.00
2023-01-19T19:37:57.992Z,10.20
2023-01-19T19:40:26.223Z,8.00
2023-01-19T19:42:53.446Z,8.13
2023-01-19T19:45:20.618Z,6.75
2023-01-19T19:47:47.705Z,9.27
2023-01-19T19:50:15.216Z,7.63
2023-01-19T19:52:42.937Z,8.57
2023-01-19T19:55:10.980Z,12.18
2023-01-19T19:57:38.214Z,6.32
2023-01-19T20:00:06.528Z,8.32
2023-01-19T20:02:33.607Z,10.27
2023-01-19T20:05:00.823Z,8.88
2023-01-19T20:07:27.945Z,11.48
2023-01-19T20:09:55.390Z,10.77
2023-01-19T20:12:22.702Z,8.68
2023-01-19T20:14:49.932Z,10.18
2023-01-19T20:17:17.004Z,9.52
2023-01-19T20:19:46.648Z,8.52
2023-01-19T20:22:13.637Z,7.55
2023-01-19T20:24:40.759Z,6.03
2023-01-19T20:27:07.949Z,12.45
2023-01-19T20:29:35.236Z,10.25
2023-01-19T20:32:02.271Z,8.63
2023-01-19T20:34:33.326Z,10.18
2023-01-19T20:37:01.946Z,9.10
2023-01-19T20:39:33.588Z,6.60
2023-01-19T20:42:01.430Z,17.80
2023-01-19T20:44:28.505Z,9.73
2023-01-19T20:46:56.031Z,6.93
2023-01-19T20:49:23.490Z,10.65
2023-01-19T20:51:52.343Z,10.48
2023-01-19T20:54:22.632Z,11.65
2023-01-19T20:56:49.859Z,6.50
2023-01-19T20:59:17.478Z,9.05
2023-01-19T21:01:45.234Z,9.80
2023-01-19T21:04:13.003Z,11.77
2023-01-19T21:06:40.958Z,6.50
2023-01-19T21:09:09.269Z,10.02
2023-01-19T21:11:37.936Z,8.75
2023-01-19T21:14:06.098Z,5.45
2023-01-19T21:16:35.504Z,5.93
2023-01-19T21:19:02.958Z,6.30
2023-01-19T21:21:31.673Z,10.57
2023-01-19T21:24:03.880Z,8.55
2023-01-19T21:26:31.801Z,7.25
2023-01-19T21:28:59.755Z,8.25
2023-01-19T21:31:27.874Z,6.10
2023-01-19T21:33:55.677Z,8.80
2023-01-19T21:36:23.765Z,8.57
2023-01-19T21:38:51.751Z,6.07
2023-01-19T21:41:19.775Z,7.03
2023-01-19T21:43:47.128Z,6.25
2023-01-19T21:46:18.731Z,10.25
2023-01-19T21:48:46.538Z,5.68
2023-01-19T21:51:14.792Z,6.85
2023-01-19T21:53:42.431Z,11.68
2023-01-19T21:56:10.948Z,6.30
2023-01-19T21:58:38.668Z,6.25
2023-01-19T22:01:11.117Z,5.93
2023-01-19T22:03:38.315Z,5.55
2023-01-19T22:06:10.863Z,8.30
2023-01-19T22:08:38.385Z,7.45
2023-01-19T22:11:07.504Z,5.82
2023-01-19T22:13:35.758Z,6.18
2023-01-19T22:16:04.457Z,9.30
2023-01-19T22:18:31.529Z,8.23
2023-01-19T22:21:17.997Z,6.35
2023-01-19T22:23:48.015Z,4.50
2023-01-19T22:26:15.170Z,5.85
2023-01-19T22:28:42.279Z,7.78
2023-01-19T22:31:17.691Z,8.80
2023-01-19T22:33:45.383Z,5.97
2023-01-19T22:36:16.622Z,6.13
2023-01-19T22:38:45.029Z,5.93
2023-01-19T22:41:26.336Z,5.90
2023-01-19T22:43:55.571Z,5.53
2023-01-19T22:46:25.408Z,7.35
2023-01-19T22:48:53.217Z,8.95
2023-01-19T22:51:21.969Z,7.82
2023-01-19T22:53:49.431Z,8.63
2023-01-19T22:56:19.384Z,19.40
2023-01-19T22:58:47.755Z,3.63
2023-01-19T23:01:23.241Z,6.97
2023-01-19T23:03:51.369Z,4.78
2023-01-19T23:06:21.530Z,6.32
2023-01-19T23:08:48.861Z,9.27
2023-01-19T23:11:17.522Z,7.80
2023-01-19T23:13:45.449Z,6.47
2023-01-19T23:16:13.565Z,9.85
2023-01-19T23:18:41.814Z,7.32
2023-01-19T23:21:12.331Z,5.35
2023-01-19T23:23:40.223Z,11.48
2023-01-19T23:26:12.895Z,7.93
2023-01-19T23:28:40.200Z,9.73
2023-01-19T23:31:25.020Z,10.55
2023-01-19T23:34:00.208Z,9.70
2023-01-19T23:36:29.414Z,5.93
2023-01-19T23:38:58.934Z,6.63
2023-01-19T23:41:26.776Z,5.72
2023-01-19T23:43:53.914Z,9.32
2023-01-19T23:46:21.692Z,12.90
2023-01-19T23:48:50.133Z,8.10
2023-01-19T23:51:22.897Z,7.80
2023-01-19T23:53:50.433Z,4.90
2023-01-19T23:56:19.393Z,8.57
2023-01-19T23:58:56.659Z,9.88
